sensor_id;sensor_type;location;lat;lon;timestamp;P1;durP1;ratioP1;P2;durP2;ratioP2
79798;SDS011;69283;48.024;11.090;2024-02-15T00:00:51;6.97;;;3.63;;
79798;SDS011;69283;48.024;11.090;2024-02-15T00:03:16;7.05;;;3.15;;
79798;SDS011;69283;48.024;11.090;2024-02-15T00:05:43;4.00;;;2.40;;
79798;SDS011;69283;48.024;11.090;2024-02-15T00:08:08;8.20;;;2.50;;
79798;SDS011;69283;48.024;11.090;2024-02-15T00:10:34;5.47;;;2.60;;
79798;SDS011;69283;48.024;11.090;2024-02-15T00:15:35;5.25;;;2.35;;
79798;SDS011;69283;48.024;11.090;2024-02-15T00:18:01;5.28;;;2.58;;
79798;SDS011;69283;48.024;11.090;2024-02-15T00:20:28;4.47;;;2.33;;
79798;SDS011;69283;48.024;11.090;2024-02-15T00:22:53;6.27;;;2.10;;
79798;SDS011;69283;48.024;11.090;2024-02-15T00:25:20;4.95;;;2.15;;
79798;SDS011;69283;48.024;11.090;2024-02-15T00:27:46;6.10;;;2.05;;
79798;SDS011;69283;48.024;11.090;2024-02-15T00:30:11;4.70;;;1.70;;
79798;SDS011;69283;48.024;11.090;2024-02-15T00:32:37;5.72;;;2.10;;
79798;SDS011;69283;48.024;11.090;2024-02-15T00:35:03;4.75;;;2.05;;
79798;SDS011;69283;48.024;11.090;2024-02-15T00:40:17;6.35;;;1.73;;
79798;SDS011;69283;48.024;11.090;2024-02-15T00:42:43;3.05;;;1.48;;
79798;SDS011;69283;48.024;11.090;2024-02-15T00:45:08;3.60;;;1.80;;
79798;SDS011;69283;48.024;11.090;2024-02-15T00:47:34;4.28;;;1.95;;
79798;SDS011;69283;48.024;11.090;2024-02-15T00:49:59;3.63;;;1.70;;
79798;SDS011;69283;48.024;11.090;2024-02-15T00:52:24;6.47;;;1.63;;
79798;SDS011;69283;48.024;11.090;2024-02-15T00:54:50;3.60;;;1.50;;
79798;SDS011;69283;48.024;11.090;2024-02-15T00:57:16;3.47;;;1.60;;
79798;SDS011;69283;48.024;11.090;2024-02-15T00:59:41;4.03;;;1.80;;
79798;SDS011;69283;48.024;11.090;2024-02-15T01:02:06;3.83;;;1.67;;
79798;SDS011;69283;48.024;11.090;2024-02-15T01:04:43;3.63;;;1.35;;
79798;SDS011;69283;48.024;11.090;2024-02-15T01:07:11;2.33;;;1.40;;
79798;SDS011;69283;48.024;11.090;2024-02-15T01:09:36;2.35;;;1.42;;
79798;SDS011;69283;48.024;11.090;2024-02-15T01:12:01;3.80;;;1.63;;
79798;SDS011;69283;48.024;11.090;2024-02-15T01:14:28;2.63;;;1.35;;
79798;SDS011;69283;48.024;11.090;2024-02-15T01:16:55;3.83;;;1.75;;
79798;SDS011;69283;48.024;11.090;2024-02-15T01:19:21;3.10;;;1.45;;
79798;SDS011;69283;48.024;11.090;2024-02-15T01:21:46;2.90;;;1.33;;
79798;SDS011;69283;48.024;11.090;2024-02-15T01:24:11;2.50;;;1.45;;
79798;SDS011;69283;48.024;11.090;2024-02-15T01:28:37;3.03;;;1.60;;
79798;SDS011;69283;48.024;11.090;2024-02-15T01:31:02;3.63;;;1.60;;
79798;SDS011;69283;48.024;11.090;2024-02-15T01:33:27;4.32;;;1.65;;
79798;SDS011;69283;48.024;11.090;2024-02-15T01:35:53;3.70;;;1.58;;
79798;SDS011;69283;48.024;11.090;2024-02-15T01:38:18;3.05;;;1.48;;
79798;SDS011;69283;48.024;11.090;2024-02-15T01:40:44;3.60;;;1.40;;
79798;SDS011;69283;48.024;11.090;2024-02-15T01:43:11;3.75;;;1.40;;
79798;SDS011;69283;48.024;11.090;2024-02-15T01:45:36;3.70;;;2.22;;
79798;SDS011;69283;48.024;11.090;2024-02-15T01:48:02;3.43;;;1.43;;
79798;SDS011;69283;48.024;11.090;2024-02-15T01:52:52;3.00;;;1.50;;
79798;SDS011;69283;48.024;11.090;2024-02-15T01:57:44;2.88;;;1.17;;
79798;SDS011;69283;48.024;11.090;2024-02-15T02:00:13;4.38;;;1.10;;
79798;SDS011;69283;48.024;11.090;2024-02-15T02:02:41;3.67;;;1.02;;
79798;SDS011;69283;48.024;11.090;2024-02-15T02:05:07;3.35;;;1.75;;
79798;SDS011;69283;48.024;11.090;2024-02-15T02:07:33;3.20;;;1.23;;
79798;SDS011;69283;48.024;11.090;2024-02-15T02:09:58;2.00;;;0.93;;
79798;SDS011;69283;48.024;11.090;2024-02-15T02:12:24;3.47;;;0.95;;
79798;SDS011;69283;48.024;11.090;2024-02-15T02:17:50;2.22;;;1.00;;
79798;SDS011;69283;48.024;11.090;2024-02-15T02:20:16;1.92;;;1.05;;
79798;SDS011;69283;48.024;11.090;2024-02-15T02:22:41;2.17;;;1.05;;
79798;SDS011;69283;48.024;11.090;2024-02-15T02:25:11;2.17;;;1.13;;
79798;SDS011;69283;48.024;11.090;2024-02-15T02:27:38;2.97;;;1.30;;
79798;SDS011;69283;48.024;11.090;2024-02-15T02:30:04;2.70;;;1.17;;
79798;SDS011;69283;48.024;11.090;2024-02-15T02:32:35;2.95;;;1.30;;
79798;SDS011;69283;48.024;11.090;2024-02-15T02:35:01;2.33;;;1.25;;
79798;SDS011;69283;48.024;11.090;2024-02-15T02:37:28;3.47;;;1.33;;
79798;SDS011;69283;48.024;11.090;2024-02-15T02:42:32;2.72;;;1.40;;
79798;SDS011;69283;48.024;11.090;2024-02-15T02:44:58;4.32;;;1.38;;
79798;SDS011;69283;48.024;11.090;2024-02-15T02:47:23;2.13;;;1.00;;
79798;SDS011;69283;48.024;11.090;2024-02-15T02:49:48;3.27;;;1.40;;
79798;SDS011;69283;48.024;11.090;2024-02-15T02:52:13;2.28;;;1.27;;
79798;SDS011;69283;48.024;11.090;2024-02-15T02:54:39;2.10;;;1.10;;
79798;SDS011;69283;48.024;11.090;2024-02-15T02:57:04;6.43;;;1.60;;
79798;SDS011;69283;48.024;11.090;2024-02-15T02:59:31;3.22;;;1.33;;
79798;SDS011;69283;48.024;11.090;2024-02-15T03:01:57;2.40;;;1.13;;
79798;SDS011;69283;48.024;11.090;2024-02-15T03:04:22;3.40;;;1.65;;
79798;SDS011;69283;48.024;11.090;2024-02-15T03:08:17;2.13;;;1.08;;
79798;SDS011;69283;48.024;11.090;2024-02-15T03:10:42;3.97;;;1.58;;
79798;SDS011;69283;48.024;11.090;2024-02-15T03:13:08;2.95;;;1.45;;
79798;SDS011;69283;48.024;11.090;2024-02-15T03:15:37;2.75;;;1.42;;
79798;SDS011;69283;48.024;11.090;2024-02-15T03:18:02;2.17;;;1.30;;
79798;SDS011;69283;48.024;11.090;2024-02-15T03:20:37;2.83;;;1.27;;
79798;SDS011;69283;48.024;11.090;2024-02-15T03:23:02;1.70;;;1.10;;
79798;SDS011;69283;48.024;11.090;2024-02-15T03:25:28;3.88;;;1.67;;
79798;SDS011;69283;48.024;11.090;2024-02-15T03:27:55;3.00;;;1.60;;
79798;SDS011;69283;48.024;11.090;2024-02-15T03:33:09;3.55;;;1.73;;
79798;SDS011;69283;48.024;11.090;2024-02-15T03:35:35;5.18;;;1.33;;
79798;SDS011;69283;48.024;11.090;2024-02-15T03:38:00;5.38;;;2.03;;
79798;SDS011;69283;48.024;11.090;2024-02-15T03:40:26;3.90;;;1.52;;
79798;SDS011;69283;48.024;11.090;2024-02-15T03:42:52;4.18;;;1.90;;
79798;SDS011;69283;48.024;11.090;2024-02-15T03:45:18;5.22;;;1.73;;
79798;SDS011;69283;48.024;11.090;2024-02-15T03:47:43;5.22;;;1.85;;
79798;SDS011;69283;48.024;11.090;2024-02-15T03:50:09;4.20;;;1.53;;
79798;SDS011;69283;48.024;11.090;2024-02-15T03:52:35;3.45;;;1.58;;
79798;SDS011;69283;48.024;11.090;2024-02-15T03:55:00;3.30;;;1.58;;
79798;SDS011;69283;48.024;11.090;2024-02-15T03:59:09;2.92;;;1.30;;
79798;SDS011;69283;48.024;11.090;2024-02-15T04:01:35;3.93;;;1.37;;
79798;SDS011;69283;48.024;11.090;2024-02-15T04:04:00;2.97;;;1.67;;
79798;SDS011;69283;48.024;11.090;2024-02-15T04:06:27;3.15;;;1.60;;
79798;SDS011;69283;48.024;11.090;2024-02-15T04:08:55;2.75;;;1.38;;
79798;SDS011;69283;48.024;11.090;2024-02-15T04:11:21;3.63;;;1.53;;
79798;SDS011;69283;48.024;11.090;2024-02-15T04:13:46;2.63;;;1.30;;
79798;SDS011;69283;48.024;11.090;2024-02-15T04:16:11;2.83;;;1.30;;
79798;SDS011;69283;48.024;11.090;2024-02-15T04:18:36;4.27;;;1.80;;
79798;SDS011;69283;48.024;11.090;2024-02-15T04:23:53;3.05;;;1.67;;
79798;SDS011;69283;48.024;11.090;2024-02-15T04:26:19;2.63;;;1.30;;
79798;SDS011;69283;48.024;11.090;2024-02-15T04:28:45;3.28;;;1.50;;
79798;SDS011;69283;48.024;11.090;2024-02-15T04:31:13;5.68;;;1.25;;
79798;SDS011;69283;48.024;11.090;2024-02-15T04:33:39;2.65;;;1.23;;
79798;SDS011;69283;48.024;11.090;2024-02-15T04:36:05;3.35;;;1.42;;
79798;SDS011;69283;48.024;11.090;2024-02-15T04:38:31;2.75;;;1.25;;
79798;SDS011;69283;48.024;11.090;2024-02-15T04:40:59;3.47;;;1.90;;
79798;SDS011;69283;48.024;11.090;2024-02-15T04:43:25;2.83;;;1.17;;
79798;SDS011;69283;48.024;11.090;2024-02-15T04:48:07;4.10;;;1.25;;
79798;SDS011;69283;48.024;11.090;2024-02-15T04:50:32;2.63;;;1.25;;
79798;SDS011;69283;48.024;11.090;2024-02-15T04:52:57;3.33;;;1.65;;
79798;SDS011;69283;48.024;11.090;2024-02-15T04:55:23;3.25;;;1.30;;
79798;SDS011;69283;48.024;11.090;2024-02-15T04:57:49;2.85;;;1.50;;
79798;SDS011;69283;48.024;11.090;2024-02-15T05:00:15;2.95;;;1.45;;
79798;SDS011;69283;48.024;11.090;2024-02-15T05:02:41;2.60;;;1.30;;
79798;SDS011;69283;48.024;11.090;2024-02-15T05:05:08;2.28;;;1.20;;
79798;SDS011;69283;48.024;11.090;2024-02-15T05:07:38;3.55;;;1.88;;
79798;SDS011;69283;48.024;11.090;2024-02-15T05:12:39;5.32;;;1.92;;
79798;SDS011;69283;48.024;11.090;2024-02-15T05:15:08;3.45;;;1.58;;
79798;SDS011;69283;48.024;11.090;2024-02-15T05:17:40;7.43;;;2.38;;
79798;SDS011;69283;48.024;11.090;2024-02-15T05:20:06;4.63;;;2.58;;
79798;SDS011;69283;48.024;11.090;2024-02-15T05:22:36;6.60;;;3.03;;
79798;SDS011;69283;48.024;11.090;2024-02-15T05:25:03;5.25;;;2.63;;
79798;SDS011;69283;48.024;11.090;2024-02-15T05:27:30;4.68;;;2.72;;
79798;SDS011;69283;48.024;11.090;2024-02-15T05:29:56;6.65;;;3.63;;
79798;SDS011;69283;48.024;11.090;2024-02-15T05:32:21;6.47;;;3.17;;
79798;SDS011;69283;48.024;11.090;2024-02-15T05:38:13;4.63;;;2.40;;
79798;SDS011;69283;48.024;11.090;2024-02-15T05:40:40;3.90;;;1.90;;
79798;SDS011;69283;48.024;11.090;2024-02-15T05:43:05;4.45;;;1.73;;
79798;SDS011;69283;48.024;11.090;2024-02-15T05:45:31;5.50;;;1.48;;
79798;SDS011;69283;48.024;11.090;2024-02-15T05:50:25;5.20;;;2.10;;
79798;SDS011;69283;48.024;11.090;2024-02-15T05:52:52;3.08;;;1.40;;
79798;SDS011;69283;48.024;11.090;2024-02-15T05:55:19;3.38;;;1.25;;
79798;SDS011;69283;48.024;11.090;2024-02-15T05:57:45;3.85;;;1.42;;
79798;SDS011;69283;48.024;11.090;2024-02-15T06:02:20;5.60;;;1.48;;
79798;SDS011;69283;48.024;11.090;2024-02-15T06:04:45;4.07;;;1.77;;
79798;SDS011;69283;48.024;11.090;2024-02-15T06:07:11;4.00;;;1.58;;
79798;SDS011;69283;48.024;11.090;2024-02-15T06:09:36;3.35;;;1.75;;
79798;SDS011;69283;48.024;11.090;2024-02-15T06:12:02;3.83;;;1.85;;
79798;SDS011;69283;48.024;11.090;2024-02-15T06:14:27;2.17;;;1.15;;
79798;SDS011;69283;48.024;11.090;2024-02-15T06:16:52;6.07;;;1.33;;
79798;SDS011;69283;48.024;11.090;2024-02-15T06:19:20;4.18;;;1.63;;
79798;SDS011;69283;48.024;11.090;2024-02-15T06:21:45;3.78;;;1.80;;
79798;SDS011;69283;48.024;11.090;2024-02-15T06:24:11;3.45;;;1.73;;
79798;SDS011;69283;48.024;11.090;2024-02-15T06:28:04;4.03;;;2.00;;
79798;SDS011;69283;48.024;11.090;2024-02-15T06:30:39;7.13;;;2.75;;
79798;SDS011;69283;48.024;11.090;2024-02-15T06:33:23;3.95;;;1.85;;
79798;SDS011;69283;48.024;11.090;2024-02-15T06:36:07;4.57;;;2.42;;
79798;SDS011;69283;48.024;11.090;2024-02-15T06:38:50;4.57;;;2.40;;
79798;SDS011;69283;48.024;11.090;2024-02-15T06:41:34;4.45;;;2.50;;
79798;SDS011;69283;48.024;11.090;2024-02-15T06:44:00;6.10;;;3.53;;
79798;SDS011;69283;48.024;11.090;2024-02-15T06:46:25;5.95;;;3.67;;
79798;SDS011;69283;48.024;11.090;2024-02-15T06:48:50;6.03;;;3.63;;
79798;SDS011;69283;48.024;11.090;2024-02-15T06:53:27;9.95;;;3.72;;
79798;SDS011;69283;48.024;11.090;2024-02-15T06:55:53;15.77;;;3.90;;
79798;SDS011;69283;48.024;11.090;2024-02-15T06:58:18;10.17;;;4.50;;
79798;SDS011;69283;48.024;11.090;2024-02-15T07:00:43;11.45;;;4.30;;
79798;SDS011;69283;48.024;11.090;2024-02-15T07:03:09;12.20;;;4.90;;
79798;SDS011;69283;48.024;11.090;2024-02-15T07:05:36;6.30;;;2.30;;
79798;SDS011;69283;48.024;11.090;2024-02-15T07:08:03;6.40;;;2.65;;
79798;SDS011;69283;48.024;11.090;2024-02-15T07:10:30;5.63;;;2.80;;
79798;SDS011;69283;48.024;11.090;2024-02-15T07:12:56;6.40;;;2.58;;
79798;SDS011;69283;48.024;11.090;2024-02-15T07:15:21;5.63;;;2.90;;
79798;SDS011;69283;48.024;11.090;2024-02-15T07:19:27;5.90;;;2.20;;
79798;SDS011;69283;48.024;11.090;2024-02-15T07:21:52;5.22;;;2.65;;
79798;SDS011;69283;48.024;11.090;2024-02-15T07:24:18;4.47;;;2.10;;
79798;SDS011;69283;48.024;11.090;2024-02-15T07:26:44;6.68;;;2.85;;
79798;SDS011;69283;48.024;11.090;2024-02-15T07:29:09;6.55;;;2.80;;
79798;SDS011;69283;48.024;11.090;2024-02-15T07:31:35;8.98;;;3.30;;
79798;SDS011;69283;48.024;11.090;2024-02-15T07:34:01;5.43;;;2.60;;
79798;SDS011;69283;48.024;11.090;2024-02-15T07:36:30;8.30;;;3.03;;
79798;SDS011;69283;48.024;11.090;2024-02-15T07:38:56;6.60;;;3.43;;
79798;SDS011;69283;48.024;11.090;2024-02-15T07:43:56;8.23;;;3.97;;
79798;SDS011;69283;48.024;11.090;2024-02-15T07:46:23;9.23;;;3.83;;
79798;SDS011;69283;48.024;11.090;2024-02-15T07:48:49;8.00;;;3.63;;
79798;SDS011;69283;48.024;11.090;2024-02-15T07:51:18;6.20;;;3.17;;
79798;SDS011;69283;48.024;11.090;2024-02-15T07:53:44;4.97;;;1.90;;
79798;SDS011;69283;48.024;11.090;2024-02-15T07:56:10;4.13;;;2.00;;
79798;SDS011;69283;48.024;11.090;2024-02-15T07:58:42;4.05;;;1.88;;
79798;SDS011;69283;48.024;11.090;2024-02-15T08:01:15;5.88;;;1.83;;
79798;SDS011;69283;48.024;11.090;2024-02-15T08:03:47;4.32;;;1.85;;
79798;SDS011;69283;48.024;11.090;2024-02-15T08:08:47;4.18;;;2.53;;
79798;SDS011;69283;48.024;11.090;2024-02-15T08:11:12;4.70;;;2.03;;
79798;SDS011;69283;48.024;11.090;2024-02-15T08:13:48;2.90;;;1.60;;
79798;SDS011;69283;48.024;11.090;2024-02-15T08:16:18;2.72;;;1.70;;
79798;SDS011;69283;48.024;11.090;2024-02-15T08:18:44;4.28;;;1.85;;
79798;SDS011;69283;48.024;11.090;2024-02-15T08:21:11;4.60;;;2.00;;
79798;SDS011;69283;48.024;11.090;2024-02-15T08:23:37;2.75;;;1.80;;
79798;SDS011;69283;48.024;11.090;2024-02-15T08:26:02;3.72;;;1.77;;
79798;SDS011;69283;48.024;11.090;2024-02-15T08:28:28;3.78;;;1.60;;
79798;SDS011;69283;48.024;11.090;2024-02-15T08:33:00;4.30;;;1.88;;
79798;SDS011;69283;48.024;11.090;2024-02-15T08:35:25;2.77;;;1.57;;
79798;SDS011;69283;48.024;11.090;2024-02-15T08:37:51;3.47;;;1.80;;
79798;SDS011;69283;48.024;11.090;2024-02-15T08:40:18;2.75;;;1.60;;
79798;SDS011;69283;48.024;11.090;2024-02-15T08:42:44;6.70;;;2.15;;
79798;SDS011;69283;48.024;11.090;2024-02-15T08:45:11;2.65;;;1.52;;
79798;SDS011;69283;48.024;11.090;2024-02-15T08:47:40;4.32;;;1.67;;
79798;SDS011;69283;48.024;11.090;2024-02-15T08:50:07;3.40;;;1.95;;
79798;SDS011;69283;48.024;11.090;2024-02-15T08:52:34;3.25;;;1.90;;
79798;SDS011;69283;48.024;11.090;2024-02-15T08:58:00;5.30;;;1.95;;
79798;SDS011;69283;48.024;11.090;2024-02-15T09:00:25;3.70;;;1.92;;
79798;SDS011;69283;48.024;11.090;2024-02-15T09:02:51;5.40;;;1.60;;
79798;SDS011;69283;48.024;11.090;2024-02-15T09:05:18;4.30;;;1.98;;
79798;SDS011;69283;48.024;11.090;2024-02-15T09:07:44;2.42;;;1.48;;
79798;SDS011;69283;48.024;11.090;2024-02-15T09:10:16;5.57;;;1.83;;
79798;SDS011;69283;48.024;11.090;2024-02-15T09:12:42;7.90;;;2.28;;
79798;SDS011;69283;48.024;11.090;2024-02-15T09:15:10;3.55;;;1.70;;
79798;SDS011;69283;48.024;11.090;2024-02-15T09:17:39;3.22;;;1.55;;
79798;SDS011;69283;48.024;11.090;2024-02-15T09:22:29;3.13;;;1.80;;
79798;SDS011;69283;48.024;11.090;2024-02-15T09:27:22;2.50;;;1.53;;
79798;SDS011;69283;48.024;11.090;2024-02-15T09:29:48;3.35;;;1.30;;
79798;SDS011;69283;48.024;11.090;2024-02-15T09:32:13;1.90;;;1.10;;
79798;SDS011;69283;48.024;11.090;2024-02-15T09:34:39;2.20;;;1.30;;
79798;SDS011;69283;48.024;11.090;2024-02-15T09:37:05;3.20;;;1.20;;
79798;SDS011;69283;48.024;11.090;2024-02-15T09:39:30;3.70;;;1.57;;
79798;SDS011;69283;48.024;11.090;2024-02-15T09:41:55;2.55;;;1.23;;
79798;SDS011;69283;48.024;11.090;2024-02-15T09:46:50;2.30;;;1.50;;
79798;SDS011;69283;48.024;11.090;2024-02-15T09:49:37;2.33;;;1.20;;
79798;SDS011;69283;48.024;11.090;2024-02-15T09:52:04;2.28;;;1.13;;
79798;SDS011;69283;48.024;11.090;2024-02-15T09:54:32;3.80;;;1.90;;
79798;SDS011;69283;48.024;11.090;2024-02-15T09:56:59;2.67;;;1.25;;
79798;SDS011;69283;48.024;11.090;2024-02-15T09:59:26;2.95;;;1.50;;
79798;SDS011;69283;48.024;11.090;2024-02-15T10:01:51;4.93;;;2.22;;
79798;SDS011;69283;48.024;11.090;2024-02-15T10:04:20;2.50;;;1.25;;
79798;SDS011;69283;48.024;11.090;2024-02-15T10:06:46;4.65;;;1.52;;
79798;SDS011;69283;48.024;11.090;2024-02-15T10:11:58;3.30;;;1.70;;
79798;SDS011;69283;48.024;11.090;2024-02-15T10:14:27;5.30;;;1.50;;
79798;SDS011;69283;48.024;11.090;2024-02-15T10:16:54;2.47;;;1.27;;
79798;SDS011;69283;48.024;11.090;2024-02-15T10:19:23;3.17;;;1.40;;
79798;SDS011;69283;48.024;11.090;2024-02-15T10:21:52;2.58;;;1.45;;
79798;SDS011;69283;48.024;11.090;2024-02-15T10:24:20;1.80;;;1.38;;
79798;SDS011;69283;48.024;11.090;2024-02-15T10:26:48;3.17;;;1.20;;
79798;SDS011;69283;48.024;11.090;2024-02-15T10:29:13;2.90;;;1.25;;
79798;SDS011;69283;48.024;11.090;2024-02-15T10:36:23;2.65;;;0.77;;
79798;SDS011;69283;48.024;11.090;2024-02-15T10:38:49;2.63;;;1.00;;
79798;SDS011;69283;48.024;11.090;2024-02-15T10:41:14;2.05;;;0.93;;
79798;SDS011;69283;48.024;11.090;2024-02-15T10:43:40;1.73;;;0.93;;
79798;SDS011;69283;48.024;11.090;2024-02-15T10:46:06;2.42;;;1.05;;
79798;SDS011;69283;48.024;11.090;2024-02-15T10:48:34;3.72;;;0.90;;
79798;SDS011;69283;48.024;11.090;2024-02-15T10:51:00;1.98;;;0.90;;
79798;SDS011;69283;48.024;11.090;2024-02-15T10:53:29;2.40;;;0.90;;
79798;SDS011;69283;48.024;11.090;2024-02-15T10:56:00;1.23;;;0.95;;
79798;SDS011;69283;48.024;11.090;2024-02-15T11:00:37;1.30;;;0.70;;
79798;SDS011;69283;48.024;11.090;2024-02-15T11:03:05;1.92;;;0.88;;
79798;SDS011;69283;48.024;11.090;2024-02-15T11:05:36;2.13;;;0.90;;
79798;SDS011;69283;48.024;11.090;2024-02-15T11:08:07;1.33;;;0.60;;
79798;SDS011;69283;48.024;11.090;2024-02-15T11:10:34;1.88;;;0.85;;
79798;SDS011;69283;48.024;11.090;2024-02-15T11:13:01;0.95;;;0.60;;
79798;SDS011;69283;48.024;11.090;2024-02-15T11:15:46;1.77;;;0.73;;
79798;SDS011;69283;48.024;11.090;2024-02-15T11:23:25;1.30;;;0.55;;
79798;SDS011;69283;48.024;11.090;2024-02-15T11:25:52;1.45;;;0.60;;
79798;SDS011;69283;48.024;11.090;2024-02-15T11:30:46;1.48;;;1.00;;
79798;SDS011;69283;48.024;11.090;2024-02-15T11:36:10;1.48;;;0.68;;
79798;SDS011;69283;48.024;11.090;2024-02-15T11:38:37;2.55;;;1.00;;
79798;SDS011;69283;48.024;11.090;2024-02-15T11:41:08;2.17;;;0.90;;
79798;SDS011;69283;48.024;11.090;2024-02-15T11:47:36;2.80;;;1.38;;
79798;SDS011;69283;48.024;11.090;2024-02-15T11:50:05;1.83;;;0.60;;
79798;SDS011;69283;48.024;11.090;2024-02-15T11:52:37;1.17;;;0.60;;
79798;SDS011;69283;48.024;11.090;2024-02-15T11:55:06;1.13;;;0.50;;
79798;SDS011;69283;48.024;11.090;2024-02-15T11:57:36;1.95;;;0.80;;
79798;SDS011;69283;48.024;11.090;2024-02-15T12:00:18;2.42;;;0.63;;
79798;SDS011;69283;48.024;11.090;2024-02-15T12:03:04;1.17;;;0.60;;
79798;SDS011;69283;48.024;11.090;2024-02-15T12:05:48;1.50;;;0.70;;
79798;SDS011;69283;48.024;11.090;2024-02-15T12:08:33;3.30;;;1.52;;
79798;SDS011;69283;48.024;11.090;2024-02-15T12:12:59;3.47;;;1.15;;
79798;SDS011;69283;48.024;11.090;2024-02-15T12:16:00;2.33;;;0.90;;
79798;SDS011;69283;48.024;11.090;2024-02-15T12:18:44;2.40;;;1.13;;
79798;SDS011;69283;48.024;11.090;2024-02-15T12:21:14;2.22;;;0.95;;
79798;SDS011;69283;48.024;11.090;2024-02-15T12:23:42;2.22;;;0.82;;
79798;SDS011;69283;48.024;11.090;2024-02-15T12:26:08;3.13;;;1.00;;
79798;SDS011;69283;48.024;11.090;2024-02-15T12:28:34;2.67;;;1.08;;
79798;SDS011;69283;48.024;11.090;2024-02-15T12:31:00;2.42;;;0.93;;
79798;SDS011;69283;48.024;11.090;2024-02-15T12:33:26;1.98;;;1.05;;
79798;SDS011;69283;48.024;11.090;2024-02-15T12:38:08;2.17;;;1.10;;
79798;SDS011;69283;48.024;11.090;2024-02-15T12:40:34;2.40;;;0.60;;
79798;SDS011;69283;48.024;11.090;2024-02-15T12:43:07;1.40;;;0.70;;
79798;SDS011;69283;48.024;11.090;2024-02-15T12:45:37;1.23;;;0.70;;
79798;SDS011;69283;48.024;11.090;2024-02-15T12:48:04;2.60;;;0.65;;
79798;SDS011;69283;48.024;11.090;2024-02-15T12:50:33;2.53;;;0.85;;
79798;SDS011;69283;48.024;11.090;2024-02-15T12:52:59;2.00;;;0.65;;
79798;SDS011;69283;48.024;11.090;2024-02-15T12:55:30;1.05;;;0.70;;
79798;SDS011;69283;48.024;11.090;2024-02-15T12:58:03;1.52;;;0.75;;
79798;SDS011;69283;48.024;11.090;2024-02-15T13:02:21;0.73;;;0.45;;
79798;SDS011;69283;48.024;11.090;2024-02-15T13:04:46;2.70;;;0.70;;
79798;SDS011;69283;48.024;11.090;2024-02-15T13:07:12;0.70;;;0.47;;
79798;SDS011;69283;48.024;11.090;2024-02-15T13:09:38;1.50;;;0.68;;
79798;SDS011;69283;48.024;11.090;2024-02-15T13:12:05;1.33;;;0.52;;
79798;SDS011;69283;48.024;11.090;2024-02-15T13:14:31;2.53;;;0.90;;
79798;SDS011;69283;48.024;11.090;2024-02-15T13:16:56;1.13;;;0.50;;
79798;SDS011;69283;48.024;11.090;2024-02-15T13:19:22;1.00;;;0.57;;
79798;SDS011;69283;48.024;11.090;2024-02-15T13:21:48;2.13;;;0.83;;
79798;SDS011;69283;48.024;11.090;2024-02-15T13:26:28;1.48;;;0.73;;
79798;SDS011;69283;48.024;11.090;2024-02-15T13:28:55;0.90;;;0.52;;
79798;SDS011;69283;48.024;11.090;2024-02-15T13:31:20;1.00;;;0.57;;
79798;SDS011;69283;48.024;11.090;2024-02-15T13:33:46;2.05;;;0.43;;
79798;SDS011;69283;48.024;11.090;2024-02-15T13:36:12;1.38;;;1.00;;
79798;SDS011;69283;48.024;11.090;2024-02-15T13:38:40;2.65;;;0.77;;
79798;SDS011;69283;48.024;11.090;2024-02-15T13:41:05;1.52;;;0.80;;
79798;SDS011;69283;48.024;11.090;2024-02-15T13:43:31;2.22;;;0.70;;
79798;SDS011;69283;48.024;11.090;2024-02-15T13:45:57;2.55;;;0.75;;
79798;SDS011;69283;48.024;11.090;2024-02-15T13:51:00;2.17;;;1.23;;
79798;SDS011;69283;48.024;11.090;2024-02-15T13:53:25;1.17;;;0.53;;
79798;SDS011;69283;48.024;11.090;2024-02-15T13:55:51;1.48;;;0.50;;
79798;SDS011;69283;48.024;11.090;2024-02-15T13:58:19;1.15;;;0.40;;
79798;SDS011;69283;48.024;11.090;2024-02-15T14:00:45;0.80;;;0.40;;
79798;SDS011;69283;48.024;11.090;2024-02-15T14:03:10;1.58;;;0.52;;
79798;SDS011;69283;48.024;11.090;2024-02-15T14:05:36;1.17;;;0.40;;
79798;SDS011;69283;48.024;11.090;2024-02-15T14:08:04;0.85;;;0.22;;
79798;SDS011;69283;48.024;11.090;2024-02-15T14:10:31;0.95;;;0.40;;
79798;SDS011;69283;48.024;11.090;2024-02-15T14:15:47;1.25;;;0.40;;
79798;SDS011;69283;48.024;11.090;2024-02-15T14:18:13;0.63;;;0.35;;
79798;SDS011;69283;48.024;11.090;2024-02-15T14:20:39;0.73;;;0.50;;
79798;SDS011;69283;48.024;11.090;2024-02-15T14:23:07;1.23;;;0.55;;
79798;SDS011;69283;48.024;11.090;2024-02-15T14:25:38;2.78;;;0.40;;
79798;SDS011;69283;48.024;11.090;2024-02-15T14:28:04;0.80;;;0.52;;
79798;SDS011;69283;48.024;11.090;2024-02-15T14:30:32;1.02;;;0.38;;
79798;SDS011;69283;48.024;11.090;2024-02-15T14:33:16;1.70;;;0.55;;
79798;SDS011;69283;48.024;11.090;2024-02-15T14:35:44;3.00;;;0.90;;
79798;SDS011;69283;48.024;11.090;2024-02-15T14:40:50;0.98;;;0.50;;
79798;SDS011;69283;48.024;11.090;2024-02-15T14:43:18;1.77;;;1.25;;
79798;SDS011;69283;48.024;11.090;2024-02-15T14:45:46;3.05;;;1.50;;
79798;SDS011;69283;48.024;11.090;2024-02-15T14:48:12;2.15;;;1.25;;
79798;SDS011;69283;48.024;11.090;2024-02-15T14:50:41;1.38;;;0.80;;
79798;SDS011;69283;48.024;11.090;2024-02-15T14:53:07;0.98;;;0.65;;
79798;SDS011;69283;48.024;11.090;2024-02-15T14:55:35;1.45;;;0.65;;
79798;SDS011;69283;48.024;11.090;2024-02-15T14:58:04;4.63;;;1.05;;
79798;SDS011;69283;48.024;11.090;2024-02-15T15:00:30;2.20;;;0.70;;
79798;SDS011;69283;48.024;11.090;2024-02-15T15:04:56;1.45;;;0.60;;
79798;SDS011;69283;48.024;11.090;2024-02-15T15:07:40;1.50;;;0.55;;
79798;SDS011;69283;48.024;11.090;2024-02-15T15:10:24;1.38;;;0.70;;
79798;SDS011;69283;48.024;11.090;2024-02-15T15:13:07;1.75;;;0.70;;
79798;SDS011;69283;48.024;11.090;2024-02-15T15:15:34;2.78;;;0.88;;
79798;SDS011;69283;48.024;11.090;2024-02-15T15:18:00;2.45;;;0.68;;
79798;SDS011;69283;48.024;11.090;2024-02-15T15:20:25;0.95;;;0.60;;
79798;SDS011;69283;48.024;11.090;2024-02-15T15:22:51;0.70;;;0.35;;
79798;SDS011;69283;48.024;11.090;2024-02-15T15:25:17;1.45;;;0.50;;
79798;SDS011;69283;48.024;11.090;2024-02-15T15:30:11;2.03;;;1.13;;
79798;SDS011;69283;48.024;11.090;2024-02-15T15:32:37;2.55;;;1.17;;
79798;SDS011;69283;48.024;11.090;2024-02-15T15:35:04;2.17;;;0.90;;
79798;SDS011;69283;48.024;11.090;2024-02-15T15:37:30;2.22;;;0.75;;
79798;SDS011;69283;48.024;11.090;2024-02-15T15:39:56;3.38;;;0.60;;
79798;SDS011;69283;48.024;11.090;2024-02-15T15:42:21;2.22;;;0.80;;
79798;SDS011;69283;48.024;11.090;2024-02-15T15:44:47;0.80;;;0.55;;
79798;SDS011;69283;48.024;11.090;2024-02-15T15:47:12;1.92;;;0.85;;
79798;SDS011;69283;48.024;11.090;2024-02-15T15:49:38;2.60;;;1.23;;
79798;SDS011;69283;48.024;11.090;2024-02-15T15:54:52;3.53;;;1.73;;
79798;SDS011;69283;48.024;11.090;2024-02-15T15:57:18;2.30;;;1.48;;
79798;SDS011;69283;48.024;11.090;2024-02-15T15:59:45;1.95;;;1.02;;
79798;SDS011;69283;48.024;11.090;2024-02-15T16:02:11;2.70;;;1.33;;
79798;SDS011;69283;48.024;11.090;2024-02-15T16:04:44;3.08;;;1.65;;
79798;SDS011;69283;48.024;11.090;2024-02-15T16:07:11;3.55;;;1.40;;
79798;SDS011;69283;48.024;11.090;2024-02-15T16:09:37;2.25;;;1.65;;
79798;SDS011;69283;48.024;11.090;2024-02-15T16:12:06;2.90;;;1.90;;
79798;SDS011;69283;48.024;11.090;2024-02-15T16:14:31;2.83;;;1.60;;
79798;SDS011;69283;48.024;11.090;2024-02-15T16:18:51;3.53;;;1.48;;
79798;SDS011;69283;48.024;11.090;2024-02-15T16:21:16;2.83;;;1.40;;
79798;SDS011;69283;48.024;11.090;2024-02-15T16:23:42;2.92;;;1.35;;
79798;SDS011;69283;48.024;11.090;2024-02-15T16:26:10;2.72;;;1.30;;